Hermes — SY6064 — position and weather

sailwx.info

Track history (hours):
 
Tides and Currents Weather Stations Pressure Air Temp Water Temp Dewpoint Dewpoint Depression Visibility Wind Speed Wind Dir Waves Ship Positions

Hermes

Last reported at 2016-Feb-01 23:32 UTC. Time now 2016-Feb-12 07:54 UTC.
Position N 38°16' E 021°25'.
Warning: this ship's position is 10 days out of date.

Length 27 m; draft 4.8 m.

Type: Tug. MMSI: 240391000.

Date/timePositionNaut miles runAvg speedWind from/ knotsBaromVisibWave heightAir tempDewpointWater temp
2016-Feb-01 23:32N 38°16' E 021°25'1010.6
2016-Feb-01 22:33N 38°16' E 021°12'9 8.7
2016-Feb-01 21:33N 38°22' E 021°04'0 0.1
2016-Feb-01 19:23N 38°22' E 021°04'8 9.0
2016-Feb-01 18:32N 38°16' E 021°09'1010.5
2016-Feb-01 17:33N 38°16' E 021°22'  
2016-Jan-26 10:05N 38°15' E 021°33'5 9.2
2016-Jan-26 09:31N 38°16' E 021°27'9 9.1
2016-Jan-26 08:33N 38°16' E 021°15'9 8.7
2016-Jan-26 07:33N 38°18' E 021°05'9 9.2
2016-Jan-26 06:32N 38°27' E 021°05'0 0.0
2016-Jan-25 22:31N 38°27' E 021°05'9 9.0
2016-Jan-25 21:31N 38°18' E 021°05'8 8.5
2016-Jan-25 20:33N 38°16' E 021°14'10 9.7
2016-Jan-25 19:33N 38°15' E 021°27'  
Track history (hours):
 
Tides and Currents Weather Stations Pressure Air Temp Water Temp Dewpoint Dewpoint Depression Visibility Wind Speed Wind Dir Waves Ship Positions

Hermes

Last reported at 2016-Feb-01 23:32 UTC. Time now 2016-Feb-12 07:54 UTC.
Position N 38°16' E 021°25'.
Warning: this ship's position is 10 days out of date.

Length 27 m; draft 4.8 m.

Type: Tug. MMSI: 240391000.

Date/timePositionNaut miles runAvg speedWind from/ knotsBaromVisibWave heightAir tempDewpointWater temp
2016-Feb-01 23:32N 38°16' E 021°25'1010.6
2016-Feb-01 22:33N 38°16' E 021°12'9 8.7
2016-Feb-01 21:33N 38°22' E 021°04'0 0.1
2016-Feb-01 19:23N 38°22' E 021°04'8 9.0
2016-Feb-01 18:32N 38°16' E 021°09'1010.5
2016-Feb-01 17:33N 38°16' E 021°22'  
2016-Jan-26 10:05N 38°15' E 021°33'5 9.2
2016-Jan-26 09:31N 38°16' E 021°27'9 9.1
2016-Jan-26 08:33N 38°16' E 021°15'9 8.7
2016-Jan-26 07:33N 38°18' E 021°05'9 9.2
2016-Jan-26 06:32N 38°27' E 021°05'0 0.0
2016-Jan-25 22:31N 38°27' E 021°05'9 9.0
2016-Jan-25 21:31N 38°18' E 021°05'8 8.5
2016-Jan-25 20:33N 38°16' E 021°14'10 9.7
2016-Jan-25 19:33N 38°15' E 021°27'  

Dump ship's entire track history